Time;durP1;ratioP1;P1;durP2;ratioP2;P2;SDS_P1;SDS_P2;PMS_P1;PMS_P2;Temp;Humidity;BMP_temperature;BMP_pressure;BME280_temperature;BME280_humidity;BME280_pressure;Samples;Min_cycle;Max_cycle;Signal;HPM_P1;HPM_P2
2021/03/12 00:00:32;;;;;;;1.70;0.80;;;;;;;4.70;96.56;96054.22;5017543;28;20211;-70
2021/03/12 00:02:57;;;;;;;0.80;0.80;;;;;;;4.80;95.34;96057.16;5034706;28;20192;-70
2021/03/12 00:05:22;;;;;;;2.07;0.97;;;;;;;4.81;94.75;96069.13;5002617;28;20187;-70
2021/03/12 00:07:49;;;;;;;0.83;0.83;;;;;;;4.85;95.42;96074.69;5048827;28;20202;-70
2021/03/12 00:10:18;;;;;;;0.97;0.80;;;;;;;4.84;94.27;96078.31;5034407;28;20205;-70
2021/03/12 00:12:44;;;;;;;2.03;1.23;;;;;;;4.82;94.94;96069.94;5026825;28;20203;-70
2021/03/12 00:15:17;;;;;;;3.00;1.10;;;;;;;4.93;93.71;96067.47;5030084;28;20178;-70
2021/03/12 00:17:45;;;;;;;2.87;1.03;;;;;;;4.94;93.68;96076.88;5012454;28;20171;-69
2021/03/12 00:20:22;;;;;;;1.10;1.00;;;;;;;5.12;90.98;96070.19;5029120;28;20191;-70
2021/03/12 00:22:48;;;;;;;2.13;1.00;;;;;;;5.15;90.08;96072.34;5038172;28;20166;-70
2021/03/12 00:25:20;;;;;;;2.27;1.20;;;;;;;5.31;88.95;96079.63;5035472;28;20169;-70
2021/03/12 00:27:46;;;;;;;3.13;1.30;;;;;;;5.33;87.96;96067.22;5026519;28;20190;-69
2021/03/12 00:30:12;;;;;;;2.80;1.20;;;;;;;5.31;88.47;96077.03;5021867;28;20573;-69
2021/03/12 00:32:38;;;;;;;3.40;1.23;;;;;;;5.35;87.67;96080.81;5048887;28;20197;-71
2021/03/12 00:35:06;;;;;;;1.70;1.03;;;;;;;5.38;87.74;96077.78;5042831;28;20177;-70
2021/03/12 00:37:32;;;;;;;1.23;1.10;;;;;;;5.44;87.83;96080.34;5032768;28;20668;-70
2021/03/12 00:39:57;;;;;;;4.00;1.00;;;;;;;5.53;86.62;96085.25;5038346;28;20201;-70
2021/03/12 00:42:23;;;;;;;1.33;1.10;;;;;;;5.57;85.62;96089.03;5018898;28;20181;-70
2021/03/12 00:44:48;;;;;;;2.20;1.40;;;;;;;5.54;85.52;96092.84;5044038;28;20195;-69
2021/03/12 00:47:14;;;;;;;1.67;1.27;;;;;;;5.58;84.67;96098.41;5026738;28;20170;-70
2021/03/12 00:49:39;;;;;;;1.10;0.90;;;;;;;5.56;85.04;96096.03;5030403;28;20234;-69
2021/03/12 00:52:05;;;;;;;2.93;1.17;;;;;;;5.57;84.04;96102.84;5040265;28;20190;-69
2021/03/12 00:54:31;;;;;;;4.17;1.20;;;;;;;5.54;84.47;96105.84;5018569;28;20270;-70
2021/03/12 00:56:56;;;;;;;1.30;1.20;;;;;;;5.50;84.80;96109.06;5044426;28;20186;-69
2021/03/12 00:59:22;;;;;;;5.10;2.13;;;;;;;5.53;82.76;96116.44;5017049;28;20255;-69
2021/03/12 01:01:48;;;;;;;3.07;1.23;;;;;;;5.53;82.37;96119.84;5022380;28;20264;-69
2021/03/12 01:04:13;;;;;;;4.27;1.57;;;;;;;5.59;82.09;96119.00;5032354;28;20171;-69
2021/03/12 01:06:39;;;;;;;3.00;1.40;;;;;;;5.67;81.47;96125.75;5037742;28;20227;-69
2021/03/12 01:09:05;;;;;;;1.40;1.30;;;;;;;5.73;79.45;96130.09;5021429;28;20209;-69
2021/03/12 01:11:30;;;;;;;1.83;1.30;;;;;;;5.74;79.24;96127.28;5048991;28;20536;-69
2021/03/12 01:13:57;;;;;;;2.27;1.30;;;;;;;5.76;79.73;96134.88;5037294;28;20194;-69
2021/03/12 01:16:22;;;;;;;3.40;1.40;;;;;;;5.79;79.62;96132.66;5027198;28;20177;-69
2021/03/12 01:18:48;;;;;;;1.60;1.50;;;;;;;5.76;79.26;96135.66;5026915;28;20203;-69
2021/03/12 01:21:13;;;;;;;1.57;1.47;;;;;;;5.78;78.01;96144.06;5027547;28;20223;-69
2021/03/12 01:23:39;;;;;;;5.63;1.60;;;;;;;5.83;78.47;96136.41;5028262;28;20162;-69
2021/03/12 01:26:05;;;;;;;2.70;1.40;;;;;;;5.81;78.67;96161.03;5017385;28;20170;-70
2021/03/12 01:28:30;;;;;;;3.53;1.20;;;;;;;5.76;78.73;96153.06;5034857;28;20193;-69
2021/03/12 01:30:56;;;;;;;2.30;1.57;;;;;;;5.80;78.00;96149.03;5018780;28;20191;-70
2021/03/12 01:33:22;;;;;;;1.87;1.40;;;;;;;5.77;77.60;96142.47;5034979;28;20209;-69
2021/03/12 01:35:47;;;;;;;4.73;1.67;;;;;;;5.82;76.24;96149.63;5030411;28;20219;-69
2021/03/12 01:38:13;;;;;;;4.50;1.80;;;;;;;5.87;76.72;96157.59;5038628;28;20185;-70
2021/03/12 01:40:45;;;;;;;2.17;1.37;;;;;;;5.90;76.02;96149.41;5018399;28;20238;-69
2021/03/12 01:43:10;;;;;;;2.17;1.57;;;;;;;5.88;75.58;96161.81;5034600;28;20532;-70
2021/03/12 01:45:43;;;;;;;6.30;2.10;;;;;;;5.89;75.36;96167.81;5035082;28;20190;-69
2021/03/12 01:48:14;;;;;;;2.83;1.60;;;;;;;5.89;74.75;96171.22;5012716;28;20191;-69
2021/03/12 01:50:43;;;;;;;1.70;1.60;;;;;;;5.90;76.46;96175.41;5043428;28;20259;-69
2021/03/12 01:53:16;;;;;;;4.00;1.97;;;;;;;5.90;76.68;96191.00;5034784;28;20259;-69
2021/03/12 01:55:42;;;;;;;1.87;1.70;;;;;;;5.75;77.58;96186.06;5031117;28;20181;-69
2021/03/12 01:58:08;;;;;;;1.77;1.33;;;;;;;5.65;79.63;96206.53;5022151;28;20230;-70
2021/03/12 02:00:35;;;;;;;2.10;1.40;;;;;;;5.53;80.34;96212.59;5024946;28;20203;-69
2021/03/12 02:03:02;;;;;;;2.50;1.40;;;;;;;5.46;81.65;96215.25;5016056;28;20334;-69
2021/03/12 02:05:28;;;;;;;1.93;1.30;;;;;;;5.40;81.94;96210.91;5021817;28;20174;-69
2021/03/12 02:07:55;;;;;;;1.97;1.27;;;;;;;5.32;82.51;96211.91;5031567;28;20178;-69
2021/03/12 02:10:23;;;;;;;1.50;1.40;;;;;;;5.29;83.05;96216.75;5034704;28;20288;-69
2021/03/12 02:13:08;;;;;;;3.40;1.77;;;;;;;5.21;83.38;96209.19;5036889;28;20207;-70
2021/03/12 02:15:41;;;;;;;2.77;1.33;;;;;;;5.25;82.51;96210.34;5037494;28;20182;-70
2021/03/12 02:18:12;;;;;;;3.23;1.60;;;;;;;5.20;81.54;96189.41;5032109;28;20170;-68
2021/03/12 02:21:04;;;;;;;2.57;1.23;;;;;;;5.13;81.21;96196.41;5036277;28;20202;-68
2021/03/12 02:23:39;;;;;;;1.90;1.30;;;;;;;5.11;80.74;96194.03;4976767;28;20218;-69
2021/03/12 02:26:18;;;;;;;2.40;1.50;;;;;;;5.05;80.46;96192.28;5013858;28;20186;-68
2021/03/12 02:28:48;;;;;;;4.30;1.30;;;;;;;5.06;80.11;96201.66;5028222;28;20226;-68
2021/03/12 02:31:13;;;;;;;1.90;1.20;;;;;;;5.02;81.03;96200.44;5044078;28;20231;-68
2021/03/12 02:33:40;;;;;;;2.83;1.57;;;;;;;5.00;80.97;96208.47;5023129;28;20198;-68
2021/03/12 02:36:06;;;;;;;2.00;1.10;;;;;;;5.00;80.66;96202.47;5036628;28;20180;-68
2021/03/12 02:38:33;;;;;;;1.33;1.20;;;;;;;5.00;80.67;96205.88;5016451;28;20194;-68
2021/03/12 02:40:59;;;;;;;3.70;1.17;;;;;;;4.96;80.02;96202.06;5046216;28;20184;-68
2021/03/12 02:43:27;;;;;;;2.30;1.27;;;;;;;4.96;79.93;96198.69;5022117;28;20166;-68
2021/03/12 02:45:55;;;;;;;1.43;1.10;;;;;;;4.86;80.35;96199.13;5039378;28;20183;-69
2021/03/12 02:48:21;;;;;;;1.70;1.30;;;;;;;4.92;80.44;96202.69;5023455;28;20183;-68
2021/03/12 02:50:47;;;;;;;2.50;1.67;;;;;;;4.96;79.89;96193.47;5015965;28;20570;-69
2021/03/12 02:53:13;;;;;;;3.50;1.60;;;;;;;4.90;81.03;96205.50;5033299;28;20200;-69
2021/03/12 02:55:44;;;;;;;1.27;1.17;;;;;;;4.96;80.84;96193.47;5042201;28;20185;-68
2021/03/12 02:58:10;;;;;;;0.90;0.90;;;;;;;4.97;80.89;96202.88;5016052;28;20293;-68
2021/03/12 03:00:36;;;;;;;2.00;1.30;;;;;;;4.98;81.65;96202.69;5030996;28;20575;-68
2021/03/12 03:03:03;;;;;;;4.17;1.30;;;;;;;5.01;81.79;96196.28;5028039;28;20173;-68
2021/03/12 03:05:29;;;;;;;5.03;1.33;;;;;;;4.98;79.38;96194.88;5034521;28;20258;-68
2021/03/12 03:07:56;;;;;;;3.27;1.50;;;;;;;4.93;81.17;96202.50;5022994;28;20194;-68
2021/03/12 03:10:23;;;;;;;1.77;1.20;;;;;;;4.91;80.64;96206.28;5023461;28;20199;-68
2021/03/12 03:12:51;;;;;;;1.40;1.17;;;;;;;4.93;81.05;96204.28;5046116;28;20210;-68
2021/03/12 03:15:19;;;;;;;3.33;1.30;;;;;;;4.91;81.15;96201.09;5041084;28;20198;-69
2021/03/12 03:17:46;;;;;;;1.30;1.20;;;;;;;4.93;79.48;96205.09;5036632;28;20170;-68
2021/03/12 03:20:15;;;;;;;3.17;1.50;;;;;;;4.92;78.52;96203.50;5026070;28;20718;-68
2021/03/12 03:22:45;;;;;;;3.70;1.50;;;;;;;4.87;77.58;96205.09;5046549;28;20527;-68
2021/03/12 03:25:12;;;;;;;2.67;1.37;;;;;;;4.87;78.30;96203.31;5025632;28;20596;-68
2021/03/12 03:27:39;;;;;;;2.03;1.43;;;;;;;4.81;77.84;96224.09;5036947;28;20249;-68
2021/03/12 03:30:06;;;;;;;2.90;1.30;;;;;;;4.83;77.59;96214.31;5035598;28;20244;-68
2021/03/12 03:32:32;;;;;;;3.40;1.50;;;;;;;4.83;76.81;96217.72;5036105;28;20257;-68
2021/03/12 03:34:57;;;;;;;2.17;1.27;;;;;;;4.82;77.59;96228.28;5031509;28;20198;-68
2021/03/12 03:37:24;;;;;;;1.93;1.43;;;;;;;4.84;76.42;96234.88;5022531;28;20230;-68
2021/03/12 03:39:49;;;;;;;2.60;1.50;;;;;;;4.86;75.83;96240.66;5040338;28;20665;-68
2021/03/12 03:42:17;;;;;;;1.90;1.40;;;;;;;4.81;74.79;96243.06;5041950;28;20254;-69
2021/03/12 03:44:45;;;;;;;2.83;1.70;;;;;;;4.80;73.86;96254.44;5031615;28;20216;-68
2021/03/12 03:47:11;;;;;;;3.43;1.73;;;;;;;4.81;73.40;96253.44;5026536;28;20267;-69
2021/03/12 03:49:40;;;;;;;2.43;1.80;;;;;;;4.79;72.63;96267.66;5046128;28;20292;-68
2021/03/12 03:52:08;;;;;;;4.23;1.80;;;;;;;4.80;72.16;96270.03;5013517;28;20203;-68
2021/03/12 03:54:36;;;;;;;1.70;1.50;;;;;;;4.78;71.42;96279.84;5029201;28;20186;-68
2021/03/12 03:57:02;;;;;;;1.57;1.43;;;;;;;4.82;70.66;96293.19;5011129;28;20175;-68
2021/03/12 03:59:29;;;;;;;2.50;2.00;;;;;;;4.79;69.92;96296.22;5016543;28;20239;-68
2021/03/12 04:01:55;;;;;;;2.40;2.20;;;;;;;4.84;69.43;96299.00;5045173;28;20624;-68
2021/03/12 04:04:22;;;;;;;2.27;1.80;;;;;;;4.85;69.13;96292.78;5025085;28;20257;-68
2021/03/12 04:06:48;;;;;;;4.33;1.77;;;;;;;4.80;68.59;96306.38;5033752;28;20175;-68
2021/03/12 04:09:15;;;;;;;3.73;1.70;;;;;;;4.80;68.58;96303.78;5038758;28;20564;-68
2021/03/12 04:11:41;;;;;;;2.10;1.90;;;;;;;4.72;69.22;96316.19;5038666;28;20555;-68
2021/03/12 04:14:07;;;;;;;3.63;1.53;;;;;;;4.76;69.33;96318.16;5020010;28;20174;-68
2021/03/12 04:16:33;;;;;;;6.03;1.90;;;;;;;4.79;68.74;96320.34;5039173;28;20181;-68
2021/03/12 04:19:00;;;;;;;2.50;1.90;;;;;;;4.77;68.81;96330.16;5023711;28;20679;-68
2021/03/12 04:21:27;;;;;;;4.43;1.70;;;;;;;4.80;68.04;96328.94;5028916;28;20187;-68
2021/03/12 04:23:54;;;;;;;2.40;1.80;;;;;;;4.79;68.16;96332.56;5045032;28;20170;-68
2021/03/12 04:26:20;;;;;;;2.37;1.80;;;;;;;4.82;68.37;96335.53;5030904;28;20170;-68
2021/03/12 04:28:45;;;;;;;2.73;1.90;;;;;;;4.85;67.18;96339.50;5027273;28;20222;-68
2021/03/12 04:31:11;;;;;;;3.73;1.63;;;;;;;4.86;67.38;96334.13;5014302;28;20206;-68
2021/03/12 04:33:37;;;;;;;2.53;1.77;;;;;;;4.88;66.91;96337.31;5048388;28;20234;-69
2021/03/12 04:36:04;;;;;;;3.63;1.70;;;;;;;4.93;66.91;96339.31;5038640;28;20894;-69
2021/03/12 04:38:30;;;;;;;3.47;2.00;;;;;;;4.96;67.01;96344.09;5032242;28;20594;-69
2021/03/12 04:40:57;;;;;;;4.43;1.63;;;;;;;4.96;66.71;96346.69;5036158;28;20637;-69
2021/03/12 04:43:23;;;;;;;6.47;1.90;;;;;;;4.98;66.33;96345.50;5034484;28;20230;-70
2021/03/12 04:45:49;;;;;;;4.50;2.30;;;;;;;4.93;66.24;96350.50;5036757;28;20197;-68
2021/03/12 04:48:16;;;;;;;4.20;1.93;;;;;;;4.96;67.07;96357.06;5020268;28;20552;-69
2021/03/12 04:50:42;;;;;;;2.83;1.80;;;;;;;5.06;66.75;96357.50;5034774;28;20660;-69
2021/03/12 04:53:08;;;;;;;6.43;2.07;;;;;;;5.13;66.53;96366.03;5038387;28;20282;-69
2021/03/12 04:55:34;;;;;;;5.30;2.47;;;;;;;5.19;67.11;96354.03;5032136;28;20189;-69
2021/03/12 04:58:01;;;;;;;3.00;2.00;;;;;;;5.09;65.28;96366.66;5029266;28;20226;-69
2021/03/12 05:00:28;;;;;;;2.63;1.57;;;;;;;5.14;64.74;96378.03;5017733;28;20203;-69
2021/03/12 05:02:55;;;;;;;3.70;1.93;;;;;;;5.13;64.40;96366.03;5025224;28;20518;-69
2021/03/12 05:05:23;;;;;;;4.20;2.20;;;;;;;5.15;64.29;96371.03;5027647;28;20178;-69
2021/03/12 05:07:48;;;;;;;3.53;1.93;;;;;;;4.94;63.83;96359.09;5032918;28;20182;-69
2021/03/12 05:10:14;;;;;;;4.67;2.10;;;;;;;5.00;63.49;96360.88;5035659;28;20293;-69
2021/03/12 05:12:39;;;;;;;4.50;1.97;;;;;;;4.92;63.95;96363.69;5034948;28;20199;-69
2021/03/12 05:15:06;;;;;;;3.07;2.10;;;;;;;4.87;63.75;96355.69;5037211;28;20185;-69
2021/03/12 05:17:31;;;;;;;2.33;2.03;;;;;;;4.77;64.43;96369.09;5038820;28;20190;-69
2021/03/12 05:19:56;;;;;;;2.67;1.80;;;;;;;4.72;65.25;96363.69;5046555;28;20201;-69
2021/03/12 05:22:22;;;;;;;2.10;1.90;;;;;;;4.75;65.26;96371.06;5034869;28;20247;-69
2021/03/12 05:24:48;;;;;;;3.67;2.10;;;;;;;4.72;64.50;96366.31;5039176;28;20301;-69
2021/03/12 05:27:14;;;;;;;5.27;1.70;;;;;;;4.72;64.81;96371.50;5029155;28;20179;-69
2021/03/12 05:29:40;;;;;;;2.60;1.73;;;;;;;4.69;65.01;96368.47;5028226;28;20280;-69
2021/03/12 05:32:06;;;;;;;2.67;2.00;;;;;;;4.69;65.72;96373.66;5043353;28;20873;-69
2021/03/12 05:34:31;;;;;;;4.50;2.37;;;;;;;4.70;65.70;96375.28;5022906;28;20178;-69
2021/03/12 05:36:56;;;;;;;2.00;1.80;;;;;;;4.67;66.21;96376.47;5036111;28;20542;-69
2021/03/12 05:39:24;;;;;;;3.93;1.83;;;;;;;4.66;66.75;96380.06;5025768;28;20582;-70
2021/03/12 05:41:50;;;;;;;3.60;2.00;;;;;;;4.76;66.41;96379.66;5001025;28;20657;-71
2021/03/12 05:44:17;;;;;;;3.53;2.10;;;;;;;4.79;66.91;96366.31;5034193;28;20205;-71
2021/03/12 05:46:43;;;;;;;2.93;1.73;;;;;;;4.82;66.68;96377.06;5051029;28;20178;-70
2021/03/12 05:49:09;;;;;;;4.80;1.80;;;;;;;4.83;66.60;96372.69;5029629;28;20798;-70
2021/03/12 05:51:36;;;;;;;4.17;1.90;;;;;;;4.93;66.24;96373.88;5013164;28;20556;-70
2021/03/12 05:54:03;;;;;;;6.57;2.53;;;;;;;4.83;66.87;96373.47;5021023;28;20278;-70
2021/03/12 05:56:28;;;;;;;2.53;2.10;;;;;;;4.81;67.31;96372.88;5040960;28;20644;-70
2021/03/12 05:58:54;;;;;;;4.50;1.90;;;;;;;4.91;67.00;96370.66;5029915;28;20241;-70
2021/03/12 06:01:19;;;;;;;2.13;1.93;;;;;;;4.99;67.07;96373.06;5018901;28;20183;-70
2021/03/12 06:03:45;;;;;;;2.27;1.90;;;;;;;4.99;66.76;96362.69;5021483;28;20550;-69
2021/03/12 06:06:11;;;;;;;4.90;2.27;;;;;;;5.18;66.70;96366.25;5034663;28;20178;-69
2021/03/12 06:08:36;;;;;;;3.80;2.10;;;;;;;5.15;66.51;96366.66;5015637;28;20179;-69
2021/03/12 06:11:04;;;;;;;3.57;2.20;;;;;;;5.29;66.69;96364.84;5018856;28;20175;-69
2021/03/12 06:13:30;;;;;;;3.17;2.30;;;;;;;5.26;66.54;96367.81;5031958;28;20199;-69
2021/03/12 06:15:55;;;;;;;3.07;2.10;;;;;;;5.21;66.48;96375.44;5030922;28;20626;-69
2021/03/12 06:18:26;;;;;;;2.40;2.00;;;;;;;5.18;67.22;96375.84;5047790;28;20189;-69
2021/03/12 06:20:52;;;;;;;2.20;1.53;;;;;;;5.46;75.52;96363.41;5041239;28;20170;-73
2021/03/12 06:23:39;;;;;;;2.30;1.50;;;;;;;5.75;70.28;96367.28;5039858;28;20164;-73
2021/03/12 06:26:05;;;;;;;4.53;1.70;;;;;;;5.72;66.17;96358.09;5006213;28;20183;-75
2021/03/12 06:28:31;;;;;;;3.03;1.70;;;;;;;5.53;66.25;96358.94;5012158;28;20192;-75
2021/03/12 06:30:57;;;;;;;2.10;1.93;;;;;;;5.35;67.66;96358.81;5032759;28;20185;-75
2021/03/12 06:33:34;;;;;;;2.30;2.10;;;;;;;5.40;67.86;96374.59;5039162;28;20195;-72
2021/03/12 06:36:03;;;;;;;2.33;1.87;;;;;;;5.52;67.59;96378.16;5028614;28;20715;-74
2021/03/12 06:38:28;;;;;;;2.17;1.80;;;;;;;5.52;68.42;96387.78;5013030;28;20209;-72
2021/03/12 06:40:54;;;;;;;2.47;1.73;;;;;;;5.60;68.18;96388.31;5024651;28;20258;-72
2021/03/12 06:43:26;;;;;;;2.40;2.10;;;;;;;5.66;68.27;96397.91;5052572;28;20196;-73
2021/03/12 06:45:55;;;;;;;3.10;1.60;;;;;;;5.90;67.95;96396.47;5027861;28;20722;-71
2021/03/12 06:48:22;;;;;;;2.43;2.03;;;;;;;5.94;67.71;96405.44;5024570;28;20182;-73
2021/03/12 06:50:53;;;;;;;3.40;1.80;;;;;;;5.73;68.79;96408.28;5041458;28;20201;-72
2021/03/12 06:53:38;;;;;;;2.30;1.60;;;;;;;5.71;69.45;96405.09;5033463;28;20244;-72
2021/03/12 06:56:05;;;;;;;3.60;2.00;;;;;;;5.57;70.20;96416.53;5032789;28;20187;-72
2021/03/12 06:58:32;;;;;;;3.00;1.87;;;;;;;5.56;70.42;96417.53;5029106;28;20245;-71
2021/03/12 07:00:58;;;;;;;3.80;1.60;;;;;;;5.52;70.63;96416.38;5021927;28;20187;-72
2021/03/12 07:03:27;;;;;;;4.80;1.70;;;;;;;5.57;70.61;96426.94;5038885;28;20174;-73
2021/03/12 07:06:06;;;;;;;3.47;1.77;;;;;;;5.47;71.14;96429.94;5017265;28;20178;-72
2021/03/12 07:08:35;;;;;;;2.43;1.50;;;;;;;5.44;72.13;96427.75;5032040;28;20173;-72
2021/03/12 07:11:02;;;;;;;3.63;1.60;;;;;;;5.47;72.35;96423.94;5033820;28;20178;-70
2021/03/12 07:13:28;;;;;;;4.03;2.07;;;;;;;5.65;71.79;96419.72;5008928;28;20210;-69
2021/03/12 07:15:57;;;;;;;4.30;1.80;;;;;;;5.86;71.25;96426.44;5031381;28;20184;-68
2021/03/12 07:18:24;;;;;;;2.30;1.67;;;;;;;5.96;71.24;96423.44;5051699;28;20202;-70
2021/03/12 07:20:49;;;;;;;3.77;1.73;;;;;;;6.16;71.18;96431.97;5027801;28;20213;-69
2021/03/12 07:23:20;;;;;;;2.10;1.90;;;;;;;6.30;70.25;96432.72;5025675;28;20718;-69
2021/03/12 07:25:46;;;;;;;4.20;1.77;;;;;;;6.30;70.36;96441.28;5043640;28;20178;-71
2021/03/12 07:28:16;;;;;;;2.50;1.70;;;;;;;6.43;69.49;96443.81;5017955;28;20212;-70
2021/03/12 07:30:43;;;;;;;3.83;2.40;;;;;;;6.59;70.36;96442.53;5036759;28;20208;-70
2021/03/12 07:33:10;;;;;;;2.67;2.17;;;;;;;6.92;69.67;96447.53;5036956;28;20252;-71
2021/03/12 07:35:37;;;;;;;1.67;1.57;;;;;;;7.28;66.43;96445.03;5025773;28;20540;-71
2021/03/12 07:38:05;;;;;;;2.77;2.00;;;;;;;7.55;66.00;96448.19;4996751;28;20185;-71
2021/03/12 07:40:31;;;;;;;1.83;1.70;;;;;;;7.63;64.78;96450.53;5030138;28;20211;-71
2021/03/12 07:42:57;;;;;;;1.90;1.80;;;;;;;7.77;64.67;96453.78;5029562;28;20176;-71
2021/03/12 07:45:23;;;;;;;3.10;1.80;;;;;;;7.97;63.39;96454.38;5030541;28;20266;-72
2021/03/12 07:47:49;;;;;;;4.47;2.20;;;;;;;7.87;62.76;96460.09;5040570;28;20658;-71
2021/03/12 07:50:29;;;;;;;2.37;2.00;;;;;;;7.68;63.11;96462.94;5017959;28;20297;-71
2021/03/12 07:52:54;;;;;;;2.60;1.77;;;;;;;7.59;63.10;96467.59;5025054;28;20199;-71
2021/03/12 07:55:35;;;;;;;2.50;2.30;;;;;;;7.65;63.42;96473.78;5017263;28;20728;-71
2021/03/12 07:58:02;;;;;;;2.23;2.00;;;;;;;7.35;62.89;96474.47;5021553;28;20789;-71
2021/03/12 08:00:28;;;;;;;3.00;2.20;;;;;;;7.47;63.62;96479.75;5021667;28;20252;-72
2021/03/12 08:02:59;;;;;;;2.93;2.30;;;;;;;7.70;63.27;96487.75;5023165;28;20166;-72
2021/03/12 08:05:45;;;;;;;2.53;2.33;;;;;;;7.86;62.84;96481.97;5042979;28;20214;-71
2021/03/12 08:08:32;;;;;;;2.50;2.20;;;;;;;8.05;61.21;96490.63;5048384;28;20173;-72
2021/03/12 08:11:17;;;;;;;2.27;2.17;;;;;;;8.37;60.54;96482.66;5006701;28;20699;-72
2021/03/12 08:13:42;;;;;;;3.80;2.40;;;;;;;8.50;59.99;96492.94;5013244;28;20187;-72
2021/03/12 08:16:08;;;;;;;2.40;2.30;;;;;;;8.73;58.96;96479.97;5043150;28;20185;-72
2021/03/12 08:18:34;;;;;;;3.50;2.33;;;;;;;9.11;58.13;96482.22;5014834;28;20175;-71
2021/03/12 08:20:59;;;;;;;3.83;2.47;;;;;;;9.09;58.69;96474.59;5018593;28;20199;-71
2021/03/12 08:23:34;;;;;;;4.53;2.77;;;;;;;9.26;57.78;96484.41;5029842;28;20223;-71
2021/03/12 08:26:00;;;;;;;3.00;2.50;;;;;;;8.90;57.33;96478.34;5037113;28;20173;-72
2021/03/12 08:28:29;;;;;;;2.73;2.27;;;;;;;8.83;57.74;96471.59;5041101;28;20258;-72
2021/03/12 08:30:56;;;;;;;2.47;2.20;;;;;;;8.86;58.38;96473.78;5029508;28;20217;-72
2021/03/12 08:33:22;;;;;;;2.37;2.27;;;;;;;9.00;58.00;96478.56;5030636;28;20193;-71
2021/03/12 08:35:51;;;;;;;1.83;1.70;;;;;;;9.13;57.23;96472.38;5050236;28;20200;-71
2021/03/12 08:38:23;;;;;;;2.50;2.30;;;;;;;8.98;57.60;96474.59;5024338;28;20204;-71
2021/03/12 08:41:07;;;;;;;3.27;1.97;;;;;;;8.94;56.49;96470.81;5027674;28;20681;-71
2021/03/12 08:43:34;;;;;;;2.13;1.90;;;;;;;8.75;56.55;96457.81;5046193;28;20192;-71
2021/03/12 08:46:10;;;;;;;2.80;2.00;;;;;;;8.96;57.13;96458.34;5020197;28;20175;-71
2021/03/12 08:48:38;;;;;;;2.20;2.00;;;;;;;9.35;55.76;96462.97;5032754;28;20183;-71
2021/03/12 08:51:12;;;;;;;2.47;2.27;;;;;;;9.47;55.91;96468.19;5022304;28;20183;-71
2021/03/12 08:53:59;;;;;;;2.10;1.90;;;;;;;9.72;55.82;96460.09;5019795;28;20267;-71
2021/03/12 08:56:28;;;;;;;2.47;2.10;;;;;;;9.91;54.91;96461.56;5035642;28;20601;-71
2021/03/12 08:58:55;;;;;;;3.00;1.90;;;;;;;10.03;55.03;96468.34;5024637;28;20284;-71
2021/03/12 09:01:26;;;;;;;4.00;2.10;;;;;;;9.88;54.66;96460.19;5038144;28;20175;-71
2021/03/12 09:04:02;;;;;;;2.50;2.00;;;;;;;9.63;54.52;96459.66;5033118;28;20216;-71
2021/03/12 09:06:31;;;;;;;2.50;1.67;;;;;;;9.28;54.28;96458.84;5051459;28;20223;-71
2021/03/12 09:08:58;;;;;;;3.03;1.90;;;;;;;9.23;54.41;96456.09;5042320;28;20581;-71
2021/03/12 09:11:25;;;;;;;1.90;1.80;;;;;;;9.43;52.68;96456.56;5018745;28;20558;-71
2021/03/12 09:13:53;;;;;;;2.93;1.80;;;;;;;9.46;51.60;96459.56;5033371;28;20282;-71
2021/03/12 09:16:21;;;;;;;2.33;1.77;;;;;;;9.55;51.17;96460.00;5036212;28;20243;-71
2021/03/12 09:18:47;;;;;;;2.77;1.90;;;;;;;9.23;51.14;96451.69;5018916;28;20551;-72
2021/03/12 09:21:23;;;;;;;3.37;1.90;;;;;;;9.48;51.30;96454.06;5033054;28;20817;-70
2021/03/12 09:23:55;;;;;;;1.70;1.60;;;;;;;9.56;52.36;96458.97;5035517;28;20676;-70
2021/03/12 09:26:30;;;;;;;3.80;1.87;;;;;;;9.47;52.86;96462.97;5012693;28;20254;-70
2021/03/12 09:29:00;;;;;;;3.30;2.03;;;;;;;9.43;53.67;96444.28;5044176;28;20194;-70
2021/03/12 09:31:34;;;;;;;2.47;1.57;;;;;;;9.37;53.03;96453.03;5048074;28;20209;-70
2021/03/12 09:34:02;;;;;;;4.03;1.70;;;;;;;9.18;53.70;96462.81;5016148;28;20251;-70
2021/03/12 09:36:42;;;;;;;2.17;1.90;;;;;;;9.33;53.74;96464.19;5038378;28;20166;-70
2021/03/12 09:39:22;;;;;;;2.20;2.00;;;;;;;9.15;53.53;96459.84;5015144;28;20210;-72
2021/03/12 09:42:00;;;;;;;2.07;1.60;;;;;;;9.50;51.86;96454.66;5011863;28;20162;-72
2021/03/12 09:44:27;;;;;;;2.00;1.77;;;;;;;9.65;51.91;96454.19;5022868;28;20190;-72
2021/03/12 09:46:57;;;;;;;2.00;1.80;;;;;;;9.74;51.75;96453.63;5047909;28;20257;-72
2021/03/12 09:49:44;;;;;;;2.53;1.60;;;;;;;9.72;51.50;96457.47;5030350;28;20213;-72
2021/03/12 09:52:12;;;;;;;2.00;1.80;;;;;;;9.72;51.34;96441.78;5026172;28;20209;-72
2021/03/12 09:54:40;;;;;;;3.47;2.00;;;;;;;10.02;51.09;96442.44;5022163;28;20201;-72
2021/03/12 09:57:06;;;;;;;2.00;1.60;;;;;;;9.92;51.71;96437.75;5043615;28;20182;-73
2021/03/12 09:59:36;;;;;;;2.10;1.63;;;;;;;9.68;52.17;96449.31;5026136;28;20685;-72
2021/03/12 10:02:04;;;;;;;2.70;1.80;;;;;;;9.44;54.36;96447.72;5043064;28;20288;-72
2021/03/12 10:04:39;;;;;;;3.00;1.80;;;;;;;9.46;54.24;96438.63;5052484;28;20178;-72
2021/03/12 10:07:07;;;;;;;3.97;1.70;;;;;;;9.61;53.01;96443.38;5036390;28;20174;-72
2021/03/12 10:09:34;;;;;;;2.97;1.90;;;;;;;9.92;52.71;96448.22;5041671;28;20203;-71
2021/03/12 10:12:02;;;;;;;2.83;2.00;;;;;;;9.83;52.07;96439.16;5016948;28;20190;-70
2021/03/12 10:14:37;;;;;;;5.13;1.80;;;;;;;9.78;51.68;96449.53;5038594;28;20177;-71
2021/03/12 10:17:09;;;;;;;2.47;1.60;;;;;;;9.42;52.14;96452.34;5023177;28;20175;-71
2021/03/12 10:19:57;;;;;;;1.80;1.70;;;;;;;9.25;52.42;96446.22;5047433;28;20191;-71
2021/03/12 10:22:43;;;;;;;2.43;1.60;;;;;;;9.14;53.82;96456.44;5014934;28;20223;-71
2021/03/12 10:25:14;;;;;;;3.27;1.70;;;;;;;8.90;55.72;96459.25;5039371;28;20190;-70
2021/03/12 10:27:50;;;;;;;2.17;1.87;;;;;;;9.04;55.79;96468.47;5048334;28;20474;-71
2021/03/12 10:30:51;;;;;;;2.53;1.83;;;;;;;9.01;61.64;96461.88;5027057;28;20225;-71
2021/03/12 10:33:22;;;;;;;2.03;1.93;;;;;;;8.76;65.38;96464.63;4986572;28;20222;-71
2021/03/12 10:35:48;;;;;;;5.27;2.77;;;;;;;8.72;64.72;96460.88;5042044;28;20204;-71
2021/03/12 10:38:13;;;;;;;4.50;2.70;;;;;;;8.76;64.99;96456.81;5033435;28;20165;-71
2021/03/12 10:40:41;;;;;;;3.27;2.13;;;;;;;8.92;64.87;96460.59;5004713;28;20306;-69
2021/03/12 10:43:30;;;;;;;3.27;2.60;;;;;;;8.95;64.60;96454.94;5018195;28;20164;-70
2021/03/12 10:45:58;;;;;;;2.67;1.97;;;;;;;9.10;62.82;96454.50;5019198;28;20179;-70
2021/03/12 10:48:27;;;;;;;3.07;2.30;;;;;;;9.24;62.64;96457.72;5020483;28;20191;-70
2021/03/12 10:50:55;;;;;;;1.90;1.80;;;;;;;9.17;60.02;96445.53;5040296;28;20201;-70
2021/03/12 10:53:21;;;;;;;2.13;1.60;;;;;;;9.28;59.58;96443.94;5018177;28;20575;-69
2021/03/12 10:55:52;;;;;;;1.90;1.80;;;;;;;9.24;60.95;96442.81;5032565;28;20185;-70
2021/03/12 10:58:37;;;;;;;3.03;2.03;;;;;;;9.30;62.94;96439.31;5041828;28;20704;-70
2021/03/12 11:01:18;;;;;;;2.77;1.87;;;;;;;9.55;60.51;96429.41;5021440;28;20183;-70
2021/03/12 11:03:45;;;;;;;2.03;1.83;;;;;;;9.46;60.09;96435.22;5022935;28;20253;-70
2021/03/12 11:06:12;;;;;;;1.50;1.40;;;;;;;9.46;58.43;96440.44;5032545;28;20578;-70
2021/03/12 11:08:39;;;;;;;1.80;1.70;;;;;;;9.18;57.35;96428.84;5028011;28;20204;-72
2021/03/12 11:11:07;;;;;;;4.23;1.93;;;;;;;9.04;57.92;96418.78;5021193;28;20169;-72
2021/03/12 11:13:35;;;;;;;2.03;1.60;;;;;;;8.95;58.18;96420.94;5027647;28;20186;-71
2021/03/12 11:16:01;;;;;;;1.80;1.70;;;;;;;8.83;54.68;96414.91;5042720;28;20175;-71
2021/03/12 11:18:30;;;;;;;1.80;1.70;;;;;;;9.02;55.46;96408.59;5019950;28;20175;-71
2021/03/12 11:20:56;;;;;;;1.93;1.70;;;;;;;9.20;55.17;96405.03;5042412;28;20175;-69
2021/03/12 11:23:21;;;;;;;1.57;1.50;;;;;;;9.16;53.40;96389.03;5037536;28;20175;-71
2021/03/12 11:25:47;;;;;;;1.77;1.67;;;;;;;9.28;54.65;96403.94;5024223;28;20171;-71
2021/03/12 11:28:12;;;;;;;1.57;1.47;;;;;;;9.38;54.34;96397.09;5045529;28;20265;-69
2021/03/12 11:30:38;;;;;;;3.13;2.23;;;;;;;9.56;51.36;96393.56;5032364;28;20601;-69
2021/03/12 11:33:04;;;;;;;1.40;1.40;;;;;;;9.44;50.17;96390.97;5027500;28;20191;-72
2021/03/12 11:35:30;;;;;;;1.70;1.60;;;;;;;9.80;50.21;96386.47;5041935;28;20197;-71
2021/03/12 11:37:57;;;;;;;2.10;1.60;;;;;;;9.96;50.96;96370.03;5045164;28;20166;-69
2021/03/12 11:40:22;;;;;;;2.00;1.80;;;;;;;9.99;51.01;96377.41;5038365;28;20285;-69
2021/03/12 11:42:48;;;;;;;2.43;1.67;;;;;;;10.15;51.68;96360.97;5033866;28;20630;-69
2021/03/12 11:45:17;;;;;;;1.47;1.47;;;;;;;10.22;50.06;96376.56;5014529;28;20270;-69
2021/03/12 11:47:43;;;;;;;1.70;1.60;;;;;;;10.39;50.37;96361.69;5029409;28;20188;-69